sensor_id;sensor_type;location;lat;lon;timestamp;P1;durP1;ratioP1;P2;durP2;ratioP2
79074;SDS011;68476;42.710;23.388;2023-12-20T00:02:11;114.60;;;60.85;;
79074;SDS011;68476;42.710;23.388;2023-12-20T00:04:37;121.47;;;59.15;;
79074;SDS011;68476;42.710;23.388;2023-12-20T00:07:02;120.75;;;59.53;;
79074;SDS011;68476;42.710;23.388;2023-12-20T00:09:28;108.82;;;56.60;;
79074;SDS011;68476;42.710;23.388;2023-12-20T00:11:53;124.57;;;60.33;;
79074;SDS011;68476;42.710;23.388;2023-12-20T00:14:19;109.07;;;50.05;;
79074;SDS011;68476;42.710;23.388;2023-12-20T00:16:45;103.18;;;53.15;;
79074;SDS011;68476;42.710;23.388;2023-12-20T00:19:10;107.63;;;50.15;;
79074;SDS011;68476;42.710;23.388;2023-12-20T00:21:36;99.40;;;49.17;;
79074;SDS011;68476;42.710;23.388;2023-12-20T00:24:01;110.05;;;55.95;;
79074;SDS011;68476;42.710;23.388;2023-12-20T00:26:27;103.15;;;49.00;;
79074;SDS011;68476;42.710;23.388;2023-12-20T00:28:53;119.65;;;55.78;;
79074;SDS011;68476;42.710;23.388;2023-12-20T00:31:18;146.43;;;64.78;;
79074;SDS011;68476;42.710;23.388;2023-12-20T00:33:44;129.82;;;60.47;;
79074;SDS011;68476;42.710;23.388;2023-12-20T00:36:11;92.93;;;47.25;;
79074;SDS011;68476;42.710;23.388;2023-12-20T00:38:36;103.00;;;48.78;;
79074;SDS011;68476;42.710;23.388;2023-12-20T00:41:02;94.70;;;45.45;;
79074;SDS011;68476;42.710;23.388;2023-12-20T00:43:27;87.10;;;43.15;;
79074;SDS011;68476;42.710;23.388;2023-12-20T00:45:53;79.95;;;39.20;;
79074;SDS011;68476;42.710;23.388;2023-12-20T00:48:18;83.15;;;43.47;;
79074;SDS011;68476;42.710;23.388;2023-12-20T00:50:44;85.60;;;43.65;;
79074;SDS011;68476;42.710;23.388;2023-12-20T00:53:09;71.75;;;39.58;;
79074;SDS011;68476;42.710;23.388;2023-12-20T00:55:35;102.65;;;48.80;;
79074;SDS011;68476;42.710;23.388;2023-12-20T00:58:00;107.22;;;47.30;;
79074;SDS011;68476;42.710;23.388;2023-12-20T01:00:26;98.70;;;47.05;;
79074;SDS011;68476;42.710;23.388;2023-12-20T01:02:51;88.47;;;45.72;;
79074;SDS011;68476;42.710;23.388;2023-12-20T01:05:19;74.78;;;39.45;;
79074;SDS011;68476;42.710;23.388;2023-12-20T01:07:48;70.53;;;37.22;;
79074;SDS011;68476;42.710;23.388;2023-12-20T01:10:14;71.80;;;38.80;;
79074;SDS011;68476;42.710;23.388;2023-12-20T01:12:39;67.50;;;37.85;;
79074;SDS011;68476;42.710;23.388;2023-12-20T01:15:05;108.38;;;51.83;;
79074;SDS011;68476;42.710;23.388;2023-12-20T01:17:31;90.55;;;43.85;;
79074;SDS011;68476;42.710;23.388;2023-12-20T01:19:56;92.93;;;44.78;;
79074;SDS011;68476;42.710;23.388;2023-12-20T01:22:23;108.93;;;56.08;;
79074;SDS011;68476;42.710;23.388;2023-12-20T01:24:48;104.40;;;51.03;;
79074;SDS011;68476;42.710;23.388;2023-12-20T01:27:14;92.07;;;47.90;;
79074;SDS011;68476;42.710;23.388;2023-12-20T01:29:39;99.93;;;48.83;;
79074;SDS011;68476;42.710;23.388;2023-12-20T01:32:05;94.90;;;44.38;;
79074;SDS011;68476;42.710;23.388;2023-12-20T01:34:31;120.88;;;53.25;;
79074;SDS011;68476;42.710;23.388;2023-12-20T01:36:56;100.28;;;50.53;;
79074;SDS011;68476;42.710;23.388;2023-12-20T01:39:22;66.18;;;35.13;;
79074;SDS011;68476;42.710;23.388;2023-12-20T01:41:47;108.47;;;49.75;;
79074;SDS011;68476;42.710;23.388;2023-12-20T01:44:12;90.15;;;41.53;;
79074;SDS011;68476;42.710;23.388;2023-12-20T01:46:38;113.28;;;49.97;;
79074;SDS011;68476;42.710;23.388;2023-12-20T01:49:03;128.90;;;55.25;;
79074;SDS011;68476;42.710;23.388;2023-12-20T01:51:29;93.57;;;47.42;;
79074;SDS011;68476;42.710;23.388;2023-12-20T01:53:56;111.25;;;50.22;;
79074;SDS011;68476;42.710;23.388;2023-12-20T01:56:22;91.75;;;44.40;;
79074;SDS011;68476;42.710;23.388;2023-12-20T01:58:49;80.68;;;40.17;;
79074;SDS011;68476;42.710;23.388;2023-12-20T02:01:14;94.93;;;46.45;;
79074;SDS011;68476;42.710;23.388;2023-12-20T02:03:41;94.35;;;46.85;;
79074;SDS011;68476;42.710;23.388;2023-12-20T02:06:07;90.22;;;44.47;;
79074;SDS011;68476;42.710;23.388;2023-12-20T02:08:34;102.65;;;47.65;;
79074;SDS011;68476;42.710;23.388;2023-12-20T02:11:00;96.80;;;44.78;;
79074;SDS011;68476;42.710;23.388;2023-12-20T02:13:25;115.05;;;53.95;;
79074;SDS011;68476;42.710;23.388;2023-12-20T02:15:51;96.25;;;48.10;;
79074;SDS011;68476;42.710;23.388;2023-12-20T02:18:17;93.18;;;42.28;;
79074;SDS011;68476;42.710;23.388;2023-12-20T02:20:43;84.70;;;42.22;;
79074;SDS011;68476;42.710;23.388;2023-12-20T02:23:08;99.93;;;47.65;;
79074;SDS011;68476;42.710;23.388;2023-12-20T02:25:34;62.95;;;31.98;;
79074;SDS011;68476;42.710;23.388;2023-12-20T02:27:59;68.65;;;36.72;;
79074;SDS011;68476;42.710;23.388;2023-12-20T02:30:26;72.53;;;39.78;;
79074;SDS011;68476;42.710;23.388;2023-12-20T02:32:52;82.28;;;40.05;;
79074;SDS011;68476;42.710;23.388;2023-12-20T02:35:18;96.72;;;48.83;;
79074;SDS011;68476;42.710;23.388;2023-12-20T02:37:43;92.88;;;45.88;;
79074;SDS011;68476;42.710;23.388;2023-12-20T02:40:09;81.63;;;43.65;;
79074;SDS011;68476;42.710;23.388;2023-12-20T02:42:35;85.50;;;45.65;;
79074;SDS011;68476;42.710;23.388;2023-12-20T02:45:01;125.47;;;54.42;;
79074;SDS011;68476;42.710;23.388;2023-12-20T02:47:26;108.45;;;51.75;;
79074;SDS011;68476;42.710;23.388;2023-12-20T02:49:51;82.07;;;39.63;;
79074;SDS011;68476;42.710;23.388;2023-12-20T02:52:18;88.20;;;45.08;;
79074;SDS011;68476;42.710;23.388;2023-12-20T02:54:43;95.82;;;43.42;;
79074;SDS011;68476;42.710;23.388;2023-12-20T02:57:09;115.78;;;48.60;;
79074;SDS011;68476;42.710;23.388;2023-12-20T02:59:34;84.38;;;45.00;;
79074;SDS011;68476;42.710;23.388;2023-12-20T03:02:00;86.38;;;43.40;;
79074;SDS011;68476;42.710;23.388;2023-12-20T03:04:25;86.05;;;43.60;;
79074;SDS011;68476;42.710;23.388;2023-12-20T03:06:51;99.97;;;46.72;;
79074;SDS011;68476;42.710;23.388;2023-12-20T03:09:16;83.30;;;43.13;;
79074;SDS011;68476;42.710;23.388;2023-12-20T03:11:42;99.75;;;47.40;;
79074;SDS011;68476;42.710;23.388;2023-12-20T03:14:07;112.65;;;52.40;;
79074;SDS011;68476;42.710;23.388;2023-12-20T03:16:33;100.32;;;48.70;;
79074;SDS011;68476;42.710;23.388;2023-12-20T03:18:58;111.85;;;56.88;;
79074;SDS011;68476;42.710;23.388;2023-12-20T03:21:24;91.90;;;46.28;;
79074;SDS011;68476;42.710;23.388;2023-12-20T03:23:49;87.07;;;39.40;;
79074;SDS011;68476;42.710;23.388;2023-12-20T03:26:15;92.05;;;48.25;;
79074;SDS011;68476;42.710;23.388;2023-12-20T03:28:40;116.63;;;53.65;;
79074;SDS011;68476;42.710;23.388;2023-12-20T03:31:06;82.05;;;42.10;;
79074;SDS011;68476;42.710;23.388;2023-12-20T03:33:31;109.03;;;46.15;;
79074;SDS011;68476;42.710;23.388;2023-12-20T03:35:57;104.55;;;46.30;;
79074;SDS011;68476;42.710;23.388;2023-12-20T03:38:22;109.78;;;49.10;;
79074;SDS011;68476;42.710;23.388;2023-12-20T03:40:50;112.55;;;50.92;;
79074;SDS011;68476;42.710;23.388;2023-12-20T03:43:16;95.20;;;43.92;;
79074;SDS011;68476;42.710;23.388;2023-12-20T03:45:42;95.68;;;43.28;;
79074;SDS011;68476;42.710;23.388;2023-12-20T03:48:08;93.65;;;44.38;;
79074;SDS011;68476;42.710;23.388;2023-12-20T03:50:34;93.28;;;45.13;;
79074;SDS011;68476;42.710;23.388;2023-12-20T03:53:00;102.78;;;46.88;;
79074;SDS011;68476;42.710;23.388;2023-12-20T03:55:25;73.90;;;39.33;;
79074;SDS011;68476;42.710;23.388;2023-12-20T03:57:51;94.68;;;45.28;;
79074;SDS011;68476;42.710;23.388;2023-12-20T04:00:16;114.18;;;52.53;;
79074;SDS011;68476;42.710;23.388;2023-12-20T04:02:42;101.18;;;48.30;;
79074;SDS011;68476;42.710;23.388;2023-12-20T04:05:08;88.07;;;42.03;;
79074;SDS011;68476;42.710;23.388;2023-12-20T04:07:37;79.07;;;42.35;;
79074;SDS011;68476;42.710;23.388;2023-12-20T04:10:03;97.05;;;46.55;;
79074;SDS011;68476;42.710;23.388;2023-12-20T04:12:29;88.40;;;48.65;;
79074;SDS011;68476;42.710;23.388;2023-12-20T04:14:55;62.70;;;34.38;;
79074;SDS011;68476;42.710;23.388;2023-12-20T04:17:21;67.90;;;35.22;;
79074;SDS011;68476;42.710;23.388;2023-12-20T04:19:48;89.22;;;41.83;;
79074;SDS011;68476;42.710;23.388;2023-12-20T04:22:14;94.10;;;43.03;;
79074;SDS011;68476;42.710;23.388;2023-12-20T04:24:39;80.05;;;37.45;;
79074;SDS011;68476;42.710;23.388;2023-12-20T04:27:07;52.03;;;28.10;;
79074;SDS011;68476;42.710;23.388;2023-12-20T04:29:33;79.57;;;35.35;;
79074;SDS011;68476;42.710;23.388;2023-12-20T04:31:58;72.28;;;36.50;;
79074;SDS011;68476;42.710;23.388;2023-12-20T04:34:24;82.60;;;37.13;;
79074;SDS011;68476;42.710;23.388;2023-12-20T04:36:49;67.60;;;34.28;;
79074;SDS011;68476;42.710;23.388;2023-12-20T04:39:15;67.50;;;31.90;;
79074;SDS011;68476;42.710;23.388;2023-12-20T04:41:40;73.50;;;31.42;;
79074;SDS011;68476;42.710;23.388;2023-12-20T04:44:06;60.20;;;29.90;;
79074;SDS011;68476;42.710;23.388;2023-12-20T04:46:31;54.42;;;24.52;;
79074;SDS011;68476;42.710;23.388;2023-12-20T04:48:57;58.17;;;28.33;;
79074;SDS011;68476;42.710;23.388;2023-12-20T04:51:22;69.60;;;30.38;;
79074;SDS011;68476;42.710;23.388;2023-12-20T04:53:48;58.85;;;27.73;;
79074;SDS011;68476;42.710;23.388;2023-12-20T04:56:14;71.70;;;30.13;;
79074;SDS011;68476;42.710;23.388;2023-12-20T04:58:39;45.13;;;22.65;;
79074;SDS011;68476;42.710;23.388;2023-12-20T05:01:05;70.68;;;40.03;;
79074;SDS011;68476;42.710;23.388;2023-12-20T05:03:31;51.38;;;26.92;;
79074;SDS011;68476;42.710;23.388;2023-12-20T05:05:56;53.90;;;25.70;;
79074;SDS011;68476;42.710;23.388;2023-12-20T05:08:22;53.80;;;25.77;;
79074;SDS011;68476;42.710;23.388;2023-12-20T05:10:47;45.30;;;24.83;;
79074;SDS011;68476;42.710;23.388;2023-12-20T05:13:13;48.85;;;26.67;;
79074;SDS011;68476;42.710;23.388;2023-12-20T05:15:39;44.05;;;26.15;;
79074;SDS011;68476;42.710;23.388;2023-12-20T05:18:04;44.78;;;25.52;;
79074;SDS011;68476;42.710;23.388;2023-12-20T05:20:30;43.25;;;22.35;;
79074;SDS011;68476;42.710;23.388;2023-12-20T05:22:55;49.72;;;23.65;;
79074;SDS011;68476;42.710;23.388;2023-12-20T05:25:21;36.72;;;19.95;;
79074;SDS011;68476;42.710;23.388;2023-12-20T05:27:46;43.25;;;22.67;;
79074;SDS011;68476;42.710;23.388;2023-12-20T05:30:12;38.78;;;22.55;;
79074;SDS011;68476;42.710;23.388;2023-12-20T05:32:38;40.85;;;22.05;;
79074;SDS011;68476;42.710;23.388;2023-12-20T05:35:04;42.83;;;21.27;;
79074;SDS011;68476;42.710;23.388;2023-12-20T05:37:30;40.42;;;22.77;;
79074;SDS011;68476;42.710;23.388;2023-12-20T05:39:55;42.50;;;22.60;;
79074;SDS011;68476;42.710;23.388;2023-12-20T05:42:21;39.05;;;20.02;;
79074;SDS011;68476;42.710;23.388;2023-12-20T05:44:46;38.60;;;18.95;;
79074;SDS011;68476;42.710;23.388;2023-12-20T05:47:11;36.58;;;19.45;;
79074;SDS011;68476;42.710;23.388;2023-12-20T05:49:37;45.15;;;20.05;;
79074;SDS011;68476;42.710;23.388;2023-12-20T05:52:02;46.03;;;23.13;;
79074;SDS011;68476;42.710;23.388;2023-12-20T05:54:28;44.45;;;21.02;;
79074;SDS011;68476;42.710;23.388;2023-12-20T05:56:54;47.40;;;21.83;;
79074;SDS011;68476;42.710;23.388;2023-12-20T05:59:19;48.53;;;23.33;;
79074;SDS011;68476;42.710;23.388;2023-12-20T06:01:45;41.00;;;20.70;;
79074;SDS011;68476;42.710;23.388;2023-12-20T06:04:10;47.40;;;24.40;;
79074;SDS011;68476;42.710;23.388;2023-12-20T06:06:40;44.05;;;22.85;;
79074;SDS011;68476;42.710;23.388;2023-12-20T06:09:07;50.83;;;24.02;;
79074;SDS011;68476;42.710;23.388;2023-12-20T06:11:32;50.88;;;24.25;;
79074;SDS011;68476;42.710;23.388;2023-12-20T06:13:58;46.30;;;24.38;;
79074;SDS011;68476;42.710;23.388;2023-12-20T06:16:23;49.78;;;24.83;;
79074;SDS011;68476;42.710;23.388;2023-12-20T06:18:48;58.17;;;26.92;;
79074;SDS011;68476;42.710;23.388;2023-12-20T06:21:14;47.53;;;25.27;;
79074;SDS011;68476;42.710;23.388;2023-12-20T06:23:40;57.47;;;25.90;;
79074;SDS011;68476;42.710;23.388;2023-12-20T06:26:06;54.75;;;27.45;;
79074;SDS011;68476;42.710;23.388;2023-12-20T06:28:31;63.10;;;27.90;;
79074;SDS011;68476;42.710;23.388;2023-12-20T06:30:57;63.53;;;28.05;;
79074;SDS011;68476;42.710;23.388;2023-12-20T06:33:22;62.92;;;28.23;;
79074;SDS011;68476;42.710;23.388;2023-12-20T06:35:49;66.57;;;31.30;;
79074;SDS011;68476;42.710;23.388;2023-12-20T06:38:15;67.97;;;30.80;;
79074;SDS011;68476;42.710;23.388;2023-12-20T06:40:40;63.05;;;29.67;;
79074;SDS011;68476;42.710;23.388;2023-12-20T06:43:07;81.72;;;36.60;;
79074;SDS011;68476;42.710;23.388;2023-12-20T06:45:33;77.30;;;35.92;;
79074;SDS011;68476;42.710;23.388;2023-12-20T06:47:58;78.75;;;38.88;;
79074;SDS011;68476;42.710;23.388;2023-12-20T06:50:24;87.03;;;36.85;;
79074;SDS011;68476;42.710;23.388;2023-12-20T06:52:49;87.15;;;37.00;;
79074;SDS011;68476;42.710;23.388;2023-12-20T06:55:15;73.18;;;36.78;;
79074;SDS011;68476;42.710;23.388;2023-12-20T06:57:40;79.40;;;37.35;;
79074;SDS011;68476;42.710;23.388;2023-12-20T07:00:06;87.38;;;37.03;;
79074;SDS011;68476;42.710;23.388;2023-12-20T07:02:33;83.45;;;35.45;;
79074;SDS011;68476;42.710;23.388;2023-12-20T07:04:59;88.97;;;37.10;;
79074;SDS011;68476;42.710;23.388;2023-12-20T07:07:25;77.22;;;34.33;;
79074;SDS011;68476;42.710;23.388;2023-12-20T07:09:51;51.65;;;26.02;;
79074;SDS011;68476;42.710;23.388;2023-12-20T07:12:16;65.13;;;34.92;;
79074;SDS011;68476;42.710;23.388;2023-12-20T07:14:44;82.28;;;34.33;;
79074;SDS011;68476;42.710;23.388;2023-12-20T07:17:10;82.80;;;34.97;;
79074;SDS011;68476;42.710;23.388;2023-12-20T07:19:38;65.82;;;30.63;;
79074;SDS011;68476;42.710;23.388;2023-12-20T07:22:07;71.47;;;33.72;;
79074;SDS011;68476;42.710;23.388;2023-12-20T07:24:33;71.00;;;34.03;;
79074;SDS011;68476;42.710;23.388;2023-12-20T07:26:59;71.63;;;32.80;;
79074;SDS011;68476;42.710;23.388;2023-12-20T07:29:25;64.28;;;30.48;;
79074;SDS011;68476;42.710;23.388;2023-12-20T07:31:52;64.13;;;30.20;;
79074;SDS011;68476;42.710;23.388;2023-12-20T07:34:19;75.57;;;32.45;;
79074;SDS011;68476;42.710;23.388;2023-12-20T07:36:45;60.17;;;31.95;;
79074;SDS011;68476;42.710;23.388;2023-12-20T07:39:10;72.18;;;32.35;;
79074;SDS011;68476;42.710;23.388;2023-12-20T07:41:36;60.58;;;28.48;;
79074;SDS011;68476;42.710;23.388;2023-12-20T07:44:01;63.17;;;29.08;;
79074;SDS011;68476;42.710;23.388;2023-12-20T07:46:27;61.00;;;29.10;;
79074;SDS011;68476;42.710;23.388;2023-12-20T07:48:52;68.75;;;32.40;;
79074;SDS011;68476;42.710;23.388;2023-12-20T07:51:18;74.25;;;32.53;;
79074;SDS011;68476;42.710;23.388;2023-12-20T07:53:44;70.00;;;32.80;;
79074;SDS011;68476;42.710;23.388;2023-12-20T07:56:19;67.93;;;29.70;;
79074;SDS011;68476;42.710;23.388;2023-12-20T08:01:11;70.50;;;29.77;;
79074;SDS011;68476;42.710;23.388;2023-12-20T08:03:37;52.30;;;26.05;;
79074;SDS011;68476;42.710;23.388;2023-12-20T08:06:02;58.90;;;26.80;;
79074;SDS011;68476;42.710;23.388;2023-12-20T08:08:28;57.00;;;28.08;;
79074;SDS011;68476;42.710;23.388;2023-12-20T08:10:54;66.40;;;29.00;;
79074;SDS011;68476;42.710;23.388;2023-12-20T08:13:19;42.75;;;21.83;;
79074;SDS011;68476;42.710;23.388;2023-12-20T08:15:45;55.45;;;26.45;;
79074;SDS011;68476;42.710;23.388;2023-12-20T08:18:10;65.22;;;30.70;;
79074;SDS011;68476;42.710;23.388;2023-12-20T08:20:36;69.47;;;31.98;;
79074;SDS011;68476;42.710;23.388;2023-12-20T08:23:01;78.38;;;33.70;;
79074;SDS011;68476;42.710;23.388;2023-12-20T08:25:27;70.32;;;32.58;;
79074;SDS011;68476;42.710;23.388;2023-12-20T08:27:53;78.10;;;33.78;;
79074;SDS011;68476;42.710;23.388;2023-12-20T08:30:18;68.57;;;31.45;;
79074;SDS011;68476;42.710;23.388;2023-12-20T08:32:47;74.35;;;33.00;;
79074;SDS011;68476;42.710;23.388;2023-12-20T08:35:13;57.70;;;29.52;;
79074;SDS011;68476;42.710;23.388;2023-12-20T08:37:38;69.47;;;34.58;;
79074;SDS011;68476;42.710;23.388;2023-12-20T08:40:04;63.75;;;29.33;;
79074;SDS011;68476;42.710;23.388;2023-12-20T08:42:30;68.43;;;29.92;;
79074;SDS011;68476;42.710;23.388;2023-12-20T08:44:57;67.18;;;30.25;;
79074;SDS011;68476;42.710;23.388;2023-12-20T08:47:23;59.78;;;27.23;;
79074;SDS011;68476;42.710;23.388;2023-12-20T08:49:49;60.85;;;27.05;;
79074;SDS011;68476;42.710;23.388;2023-12-20T08:52:15;65.93;;;29.45;;
79074;SDS011;68476;42.710;23.388;2023-12-20T08:54:41;51.65;;;25.50;;
79074;SDS011;68476;42.710;23.388;2023-12-20T08:57:06;60.30;;;25.38;;
79074;SDS011;68476;42.710;23.388;2023-12-20T08:59:32;51.47;;;24.13;;
79074;SDS011;68476;42.710;23.388;2023-12-20T09:01:58;49.47;;;22.80;;
79074;SDS011;68476;42.710;23.388;2023-12-20T09:04:23;53.75;;;24.95;;
79074;SDS011;68476;42.710;23.388;2023-12-20T09:06:49;54.78;;;23.30;;
79074;SDS011;68476;42.710;23.388;2023-12-20T09:09:14;69.50;;;27.75;;
79074;SDS011;68476;42.710;23.388;2023-12-20T09:11:40;44.70;;;24.17;;
79074;SDS011;68476;42.710;23.388;2023-12-20T09:14:07;58.33;;;27.88;;
79074;SDS011;68476;42.710;23.388;2023-12-20T09:16:32;53.60;;;25.42;;
79074;SDS011;68476;42.710;23.388;2023-12-20T09:18:58;62.67;;;27.20;;
79074;SDS011;68476;42.710;23.388;2023-12-20T09:21:23;68.38;;;27.05;;
79074;SDS011;68476;42.710;23.388;2023-12-20T09:23:49;54.00;;;24.00;;
79074;SDS011;68476;42.710;23.388;2023-12-20T09:26:14;58.42;;;25.58;;
79074;SDS011;68476;42.710;23.388;2023-12-20T09:28:40;64.28;;;27.02;;
79074;SDS011;68476;42.710;23.388;2023-12-20T09:31:05;53.55;;;24.70;;
79074;SDS011;68476;42.710;23.388;2023-12-20T09:33:31;63.63;;;28.08;;
79074;SDS011;68476;42.710;23.388;2023-12-20T09:35:57;63.90;;;27.67;;
79074;SDS011;68476;42.710;23.388;2023-12-20T09:38:23;66.07;;;29.60;;
79074;SDS011;68476;42.710;23.388;2023-12-20T09:40:49;63.35;;;28.52;;
79074;SDS011;68476;42.710;23.388;2023-12-20T09:43:14;66.00;;;27.55;;
79074;SDS011;68476;42.710;23.388;2023-12-20T09:45:41;67.72;;;27.15;;
79074;SDS011;68476;42.710;23.388;2023-12-20T09:50:36;41.13;;;18.98;;
79074;SDS011;68476;42.710;23.388;2023-12-20T09:53:02;52.10;;;21.23;;
79074;SDS011;68476;42.710;23.388;2023-12-20T09:55:29;48.53;;;23.52;;
79074;SDS011;68476;42.710;23.388;2023-12-20T09:57:57;37.90;;;18.80;;
79074;SDS011;68476;42.710;23.388;2023-12-20T10:00:22;49.97;;;20.77;;
79074;SDS011;68476;42.710;23.388;2023-12-20T10:02:58;53.45;;;23.92;;
79074;SDS011;68476;42.710;23.388;2023-12-20T10:05:28;38.75;;;17.65;;
79074;SDS011;68476;42.710;23.388;2023-12-20T10:07:55;53.58;;;23.90;;
79074;SDS011;68476;42.710;23.388;2023-12-20T10:10:20;61.83;;;24.30;;
79074;SDS011;68476;42.710;23.388;2023-12-20T10:13:03;52.03;;;22.17;;
79074;SDS011;68476;42.710;23.388;2023-12-20T10:15:36;45.45;;;19.90;;
79074;SDS011;68476;42.710;23.388;2023-12-20T10:18:02;58.92;;;23.77;;
79074;SDS011;68476;42.710;23.388;2023-12-20T10:20:31;56.58;;;23.10;;
79074;SDS011;68476;42.710;23.388;2023-12-20T10:22:57;55.00;;;24.00;;
79074;SDS011;68476;42.710;23.388;2023-12-20T10:25:24;57.58;;;25.02;;
79074;SDS011;68476;42.710;23.388;2023-12-20T10:27:50;53.20;;;23.27;;
79074;SDS011;68476;42.710;23.388;2023-12-20T10:30:48;53.13;;;24.00;;
79074;SDS011;68476;42.710;23.388;2023-12-20T10:33:23;53.65;;;24.05;;
79074;SDS011;68476;42.710;23.388;2023-12-20T10:35:53;50.03;;;21.75;;
79074;SDS011;68476;42.710;23.388;2023-12-20T10:38:19;50.97;;;25.15;;
79074;SDS011;68476;42.710;23.388;2023-12-20T10:40:45;55.30;;;23.13;;
79074;SDS011;68476;42.710;23.388;2023-12-20T10:43:11;61.67;;;26.70;;
79074;SDS011;68476;42.710;23.388;2023-12-20T10:45:37;57.70;;;27.25;;
79074;SDS011;68476;42.710;23.388;2023-12-20T10:48:03;56.72;;;25.20;;
79074;SDS011;68476;42.710;23.388;2023-12-20T10:50:30;61.85;;;26.05;;
79074;SDS011;68476;42.710;23.388;2023-12-20T10:52:56;58.88;;;26.88;;
79074;SDS011;68476;42.710;23.388;2023-12-20T10:55:23;56.80;;;26.02;;
79074;SDS011;68476;42.710;23.388;2023-12-20T10:57:50;55.47;;;26.25;;
79074;SDS011;68476;42.710;23.388;2023-12-20T11:00:19;60.72;;;28.52;;
79074;SDS011;68476;42.710;23.388;2023-12-20T11:02:49;58.50;;;26.45;;
79074;SDS011;68476;42.710;23.388;2023-12-20T11:05:22;62.25;;;27.38;;
79074;SDS011;68476;42.710;23.388;2023-12-20T11:07:50;54.40;;;27.88;;
79074;SDS011;68476;42.710;23.388;2023-12-20T11:10:31;54.97;;;26.60;;
79074;SDS011;68476;42.710;23.388;2023-12-20T11:13:26;56.35;;;27.23;;
79074;SDS011;68476;42.710;23.388;2023-12-20T11:15:56;57.78;;;27.33;;
79074;SDS011;68476;42.710;23.388;2023-12-20T11:18:28;60.97;;;31.25;;
79074;SDS011;68476;42.710;23.388;2023-12-20T11:20:54;57.20;;;28.85;;
79074;SDS011;68476;42.710;23.388;2023-12-20T11:23:20;60.83;;;29.52;;
79074;SDS011;68476;42.710;23.388;2023-12-20T11:25:46;55.75;;;29.23;;
79074;SDS011;68476;42.710;23.388;2023-12-20T11:28:20;51.00;;;25.67;;
79074;SDS011;68476;42.710;23.388;2023-12-20T11:33:26;48.65;;;24.02;;
79074;SDS011;68476;42.710;23.388;2023-12-20T11:35:56;54.45;;;24.77;;
79074;SDS011;68476;42.710;23.388;2023-12-20T11:38:22;55.80;;;27.75;;
79074;SDS011;68476;42.710;23.388;2023-12-20T11:40:48;48.72;;;25.17;;
79074;SDS011;68476;42.710;23.388;2023-12-20T11:48:34;50.05;;;24.58;;
79074;SDS011;68476;42.710;23.388;2023-12-20T11:51:00;57.63;;;29.70;;
79074;SDS011;68476;42.710;23.388;2023-12-20T11:53:27;61.05;;;28.42;;
79074;SDS011;68476;42.710;23.388;2023-12-20T11:55:54;57.45;;;28.15;;
79074;SDS011;68476;42.710;23.388;2023-12-20T11:58:19;60.53;;;28.92;;
79074;SDS011;68476;42.710;23.388;2023-12-20T12:00:45;55.97;;;28.52;;
79074;SDS011;68476;42.710;23.388;2023-12-20T12:03:14;57.60;;;28.38;;
79074;SDS011;68476;42.710;23.388;2023-12-20T12:05:40;56.70;;;27.85;;
79074;SDS011;68476;42.710;23.388;2023-12-20T12:08:06;63.33;;;28.55;;
79074;SDS011;68476;42.710;23.388;2023-12-20T12:10:32;58.50;;;26.92;;
79074;SDS011;68476;42.710;23.388;2023-12-20T12:12:58;57.83;;;28.98;;
79074;SDS011;68476;42.710;23.388;2023-12-20T12:15:24;57.30;;;26.88;;
79074;SDS011;68476;42.710;23.388;2023-12-20T12:17:53;61.15;;;28.15;;
79074;SDS011;68476;42.710;23.388;2023-12-20T12:20:20;52.47;;;25.17;;
79074;SDS011;68476;42.710;23.388;2023-12-20T12:22:46;62.85;;;25.50;;
79074;SDS011;68476;42.710;23.388;2023-12-20T12:25:15;64.38;;;30.13;;
79074;SDS011;68476;42.710;23.388;2023-12-20T12:27:41;47.70;;;21.35;;
79074;SDS011;68476;42.710;23.388;2023-12-20T12:30:08;73.40;;;31.95;;
79074;SDS011;68476;42.710;23.388;2023-12-20T12:32:34;58.58;;;28.02;;
79074;SDS011;68476;42.710;23.388;2023-12-20T12:35:02;47.00;;;20.52;;
79074;SDS011;68476;42.710;23.388;2023-12-20T12:37:28;58.25;;;26.70;;
79074;SDS011;68476;42.710;23.388;2023-12-20T12:39:54;53.28;;;23.80;;
79074;SDS011;68476;42.710;23.388;2023-12-20T12:42:23;63.78;;;30.25;;
79074;SDS011;68476;42.710;23.388;2023-12-20T12:44:53;61.58;;;27.63;;
79074;SDS011;68476;42.710;23.388;2023-12-20T12:47:19;52.25;;;24.85;;
79074;SDS011;68476;42.710;23.388;2023-12-20T12:49:44;57.38;;;26.23;;
79074;SDS011;68476;42.710;23.388;2023-12-20T12:52:10;50.60;;;24.40;;
79074;SDS011;68476;42.710;23.388;2023-12-20T12:54:35;62.97;;;31.80;;
79074;SDS011;68476;42.710;23.388;2023-12-20T12:57:01;47.88;;;24.02;;
79074;SDS011;68476;42.710;23.388;2023-12-20T12:59:27;52.97;;;25.35;;
79074;SDS011;68476;42.710;23.388;2023-12-20T13:01:52;53.28;;;24.95;;
79074;SDS011;68476;42.710;23.388;2023-12-20T13:04:18;57.63;;;27.83;;
79074;SDS011;68476;42.710;23.388;2023-12-20T13:06:44;62.63;;;27.33;;
79074;SDS011;68476;42.710;23.388;2023-12-20T13:09:09;53.90;;;24.17;;
79074;SDS011;68476;42.710;23.388;2023-12-20T13:11:35;66.45;;;31.50;;
79074;SDS011;68476;42.710;23.388;2023-12-20T13:14:01;57.83;;;27.02;;
79074;SDS011;68476;42.710;23.388;2023-12-20T13:16:28;58.20;;;26.40;;
79074;SDS011;68476;42.710;23.388;2023-12-20T13:18:54;69.55;;;28.65;;
79074;SDS011;68476;42.710;23.388;2023-12-20T13:21:19;66.15;;;28.55;;
79074;SDS011;68476;42.710;23.388;2023-12-20T13:23:45;62.15;;;28.60;;
79074;SDS011;68476;42.710;23.388;2023-12-20T13:26:10;62.15;;;25.30;;
79074;SDS011;68476;42.710;23.388;2023-12-20T13:28:36;63.78;;;27.30;;
79074;SDS011;68476;42.710;23.388;2023-12-20T13:31:01;60.20;;;25.10;;
79074;SDS011;68476;42.710;23.388;2023-12-20T13:33:28;78.05;;;31.77;;
79074;SDS011;68476;42.710;23.388;2023-12-20T13:35:53;74.60;;;29.27;;
79074;SDS011;68476;42.710;23.388;2023-12-20T13:38:19;72.15;;;28.73;;
79074;SDS011;68476;42.710;23.388;2023-12-20T13:40:44;73.80;;;27.33;;
79074;SDS011;68476;42.710;23.388;2023-12-20T13:43:09;74.65;;;30.60;;
79074;SDS011;68476;42.710;23.388;2023-12-20T13:45:39;78.07;;;31.15;;
79074;SDS011;68476;42.710;23.388;2023-12-20T13:48:04;81.45;;;31.75;;
79074;SDS011;68476;42.710;23.388;2023-12-20T13:50:30;75.90;;;28.70;;
79074;SDS011;68476;42.710;23.388;2023-12-20T13:52:56;60.72;;;26.80;;
79074;SDS011;68476;42.710;23.388;2023-12-20T13:55:21;79.93;;;29.98;;
79074;SDS011;68476;42.710;23.388;2023-12-20T13:57:50;73.60;;;29.73;;
79074;SDS011;68476;42.710;23.388;2023-12-20T14:00:16;70.13;;;27.95;;
79074;SDS011;68476;42.710;23.388;2023-12-20T14:02:41;74.47;;;29.60;;
79074;SDS011;68476;42.710;23.388;2023-12-20T14:05:08;77.72;;;30.67;;
79074;SDS011;68476;42.710;23.388;2023-12-20T14:07:36;74.03;;;30.08;;
79074;SDS011;68476;42.710;23.388;2023-12-20T14:10:02;73.00;;;31.35;;
79074;SDS011;68476;42.710;23.388;2023-12-20T14:12:30;74.38;;;27.88;;
79074;SDS011;68476;42.710;23.388;2023-12-20T14:14:57;76.20;;;29.40;;
79074;SDS011;68476;42.710;23.388;2023-12-20T14:17:22;71.25;;;28.77;;